createdAt,value
2022-11-05T00:00:38.769Z,9.80
2022-11-05T00:03:24.042Z,12.37
2022-11-05T00:06:12.180Z,11.63
2022-11-05T00:08:59.220Z,13.17
2022-11-05T00:11:45.914Z,11.27
2022-11-05T00:14:31.536Z,10.83
2022-11-05T00:16:58.299Z,13.60
2022-11-05T00:19:24.992Z,10.47
2022-11-05T00:22:10.438Z,11.47
2022-11-05T00:24:55.788Z,11.83
2022-11-05T00:27:22.512Z,11.43
2022-11-05T00:29:49.206Z,12.13
2022-11-05T00:32:15.967Z,11.47
2022-11-05T00:34:42.661Z,12.40
2022-11-05T00:37:09.418Z,11.80
2022-11-05T00:39:36.312Z,15.67
2022-11-05T00:42:21.872Z,12.90
2022-11-05T00:45:03.771Z,13.67
2022-11-05T00:47:50.082Z,11.03
2022-11-05T00:50:17.624Z,10.57
2022-11-05T00:52:56.718Z,10.63
2022-11-05T00:55:29.429Z,8.67
2022-11-05T00:57:57.430Z,10.07
2022-11-05T01:00:26.252Z,11.03
2022-11-05T01:02:53.278Z,12.17
2022-11-05T01:05:20.245Z,9.03
2022-11-05T01:07:46.945Z,11.90
2022-11-05T01:10:13.770Z,13.00
2022-11-05T01:12:40.528Z,10.63
2022-11-05T01:15:07.773Z,8.70
2022-11-05T01:17:34.695Z,10.43
2022-11-05T01:20:01.627Z,9.60
2022-11-05T01:22:28.360Z,11.77
2022-11-05T01:24:55.074Z,7.77
2022-11-05T01:27:21.857Z,8.63
2022-11-05T01:29:48.537Z,7.07
2022-11-05T01:32:15.244Z,9.93
2022-11-05T01:34:41.944Z,12.30
2022-11-05T01:37:08.637Z,8.50
2022-11-05T01:39:35.336Z,13.77
2022-11-05T01:42:02.232Z,9.47
2022-11-05T01:44:57.122Z,10.27
2022-11-05T01:47:39.528Z,9.77
2022-11-05T01:50:26.573Z,9.17
2022-11-05T01:53:14.208Z,12.40
2022-11-05T01:55:46.132Z,12.63
2022-11-05T01:58:16.400Z,8.30
2022-11-05T02:00:43.904Z,9.13
2022-11-05T02:03:13.542Z,10.90
2022-11-05T02:05:41.907Z,10.70
2022-11-05T02:08:16.578Z,9.20
2022-11-05T02:10:45.617Z,10.63
2022-11-05T02:13:12.567Z,12.17
2022-11-05T02:16:03.223Z,8.33
2022-11-05T02:18:41.317Z,10.37
2022-11-05T02:21:10.802Z,9.30
2022-11-05T02:24:06.797Z,10.00
2022-11-05T02:26:57.996Z,10.53
2022-11-05T02:29:49.066Z,8.63
2022-11-05T02:32:27.538Z,10.07
2022-11-05T02:34:56.955Z,11.17
2022-11-05T02:37:35.494Z,9.33
2022-11-05T02:40:11.542Z,10.23
2022-11-05T02:42:49.978Z,9.20
2022-11-05T02:45:32.320Z,7.50
2022-11-05T02:48:14.395Z,10.57
2022-11-05T02:50:53.750Z,9.57
2022-11-05T02:53:33.174Z,9.57
2022-11-05T02:56:05.564Z,12.43
2022-11-05T02:58:34.741Z,12.13
2022-11-05T03:01:06.760Z,12.67
2022-11-05T03:03:45.693Z,10.50
2022-11-05T03:06:26.332Z,10.30
2022-11-05T03:09:30.839Z,8.17
2022-11-05T03:12:12.317Z,9.20
2022-11-05T03:15:07.170Z,13.03
2022-11-05T03:17:52.770Z,9.20
2022-11-05T03:21:09.517Z,10.63
2022-11-05T03:23:41.778Z,9.23
2022-11-05T03:26:31.509Z,7.83
2022-11-05T03:29:18.050Z,7.87
2022-11-05T03:31:48.066Z,8.60
2022-11-05T03:34:17.865Z,8.00
2022-11-05T03:36:50.827Z,10.10
2022-11-05T03:39:23.129Z,9.47
2022-11-05T03:41:53.697Z,9.87
2022-11-05T03:44:26.061Z,8.03
2022-11-05T03:46:56.883Z,7.73
2022-11-05T03:49:34.371Z,9.40
2022-11-05T03:52:08.435Z,9.67
2022-11-05T03:54:35.693Z,7.93
2022-11-05T03:57:15.118Z,11.77
2022-11-05T03:59:47.777Z,9.97
2022-11-05T04:02:16.979Z,11.30
2022-11-05T04:04:44.307Z,9.03
2022-11-05T04:07:30.853Z,8.37
2022-11-05T04:10:16.331Z,9.63
2022-11-05T04:13:01.957Z,11.30
2022-11-05T04:15:51.987Z,11.83
2022-11-05T04:18:19.004Z,12.93
2022-11-05T04:21:04.415Z,8.60
2022-11-05T04:23:49.681Z,11.07
2022-11-05T04:26:16.478Z,9.73
2022-11-05T04:29:07.654Z,10.23
2022-11-05T04:31:34.887Z,9.90
2022-11-05T04:34:01.659Z,11.83
2022-11-05T04:36:28.421Z,11.87
2022-11-05T04:38:55.209Z,8.40
2022-11-05T04:41:21.975Z,9.03
2022-11-05T04:43:49.059Z,9.47
2022-11-05T04:46:15.829Z,11.23
2022-11-05T04:48:42.544Z,10.67
2022-11-05T04:51:09.242Z,7.77
2022-11-05T04:53:36.026Z,8.23
2022-11-05T04:56:10.259Z,9.80
2022-11-05T04:58:41.587Z,12.37
2022-11-05T05:01:16.379Z,8.73
2022-11-05T05:03:43.501Z,8.20
2022-11-05T05:06:10.803Z,10.00
2022-11-05T05:08:37.627Z,9.47
2022-11-05T05:11:06.443Z,10.97
2022-11-05T05:13:33.474Z,8.47
2022-11-05T05:16:04.365Z,11.00
2022-11-05T05:18:31.116Z,9.30
2022-11-05T05:21:17.415Z,9.97
2022-11-05T05:23:44.190Z,8.43
2022-11-05T05:26:10.874Z,8.83
2022-11-05T05:28:37.630Z,7.27
2022-11-05T05:31:04.580Z,11.03
2022-11-05T05:33:31.356Z,7.90
2022-11-05T05:35:58.728Z,13.33
2022-11-05T05:38:25.517Z,9.13
2022-11-05T05:40:52.638Z,12.47
2022-11-05T05:43:19.321Z,9.23
2022-11-05T05:45:46.013Z,7.97
2022-11-05T05:48:12.719Z,9.97
2022-11-05T05:50:39.398Z,8.23
2022-11-05T05:53:06.095Z,11.73
2022-11-05T05:55:32.817Z,9.97
2022-11-05T05:57:59.551Z,11.57
2022-11-05T06:00:26.247Z,14.10
2022-11-05T06:02:56.129Z,10.67
2022-11-05T06:05:22.989Z,12.27
2022-11-05T06:07:57.240Z,8.37
2022-11-05T06:10:25.292Z,9.23
2022-11-05T06:12:52.092Z,9.27
2022-11-05T06:15:18.827Z,9.60
2022-11-05T06:17:45.958Z,8.97
2022-11-05T06:20:13.489Z,8.87
2022-11-05T06:22:40.557Z,9.80
2022-11-05T06:25:08.223Z,8.87
2022-11-05T06:27:36.753Z,8.50
2022-11-05T06:30:04.843Z,6.03
2022-11-05T06:32:31.657Z,8.57
2022-11-05T06:34:58.360Z,7.83
2022-11-05T06:37:25.418Z,8.27
2022-11-05T06:39:52.223Z,9.73
2022-11-05T06:42:19.546Z,9.03
2022-11-05T06:44:46.614Z,9.40
2022-11-05T06:47:13.352Z,9.87
2022-11-05T06:49:40.051Z,7.93
2022-11-05T06:52:06.874Z,6.83
2022-11-05T06:54:33.597Z,7.77
2022-11-05T06:57:00.352Z,8.80
2022-11-05T06:59:27.205Z,8.13
2022-11-05T07:01:54.105Z,9.53
2022-11-05T07:04:20.912Z,8.27
2022-11-05T07:06:47.667Z,6.73
2022-11-05T07:09:14.446Z,6.97
2022-11-05T07:11:41.358Z,7.07
2022-11-05T07:14:08.085Z,11.40
2022-11-05T07:16:34.820Z,7.03
2022-11-05T07:19:01.545Z,11.20
2022-11-05T07:21:28.789Z,7.67
2022-11-05T07:23:55.481Z,8.43
2022-11-05T07:26:22.174Z,5.70
2022-11-05T07:28:49.074Z,7.70
2022-11-05T07:31:15.760Z,9.53
2022-11-05T07:33:42.555Z,8.10
2022-11-05T07:36:10.018Z,9.87
2022-11-05T07:38:36.982Z,6.53
2022-11-05T07:41:03.738Z,11.00
2022-11-05T07:43:30.542Z,9.57
2022-11-05T07:45:57.423Z,6.90
2022-11-05T07:48:24.180Z,8.33
2022-11-05T07:50:52.788Z,6.93
2022-11-05T07:53:20.951Z,10.40
2022-11-05T07:55:47.847Z,7.87
2022-11-05T07:58:14.686Z,6.20
2022-11-05T08:00:41.604Z,7.83
2022-11-05T08:03:19.443Z,9.07
2022-11-05T08:05:47.938Z,4.40
2022-11-05T08:08:17.237Z,6.13
2022-11-05T08:10:44.080Z,4.80
2022-11-05T08:13:11.732Z,6.97
2022-11-05T08:15:39.597Z,7.30
2022-11-05T08:18:10.417Z,7.03
2022-11-05T08:20:38.582Z,6.77
2022-11-05T08:23:05.930Z,5.60
2022-11-05T08:25:32.965Z,6.20
2022-11-05T08:28:02.860Z,8.03
2022-11-05T08:30:41.786Z,8.77
2022-11-05T08:33:13.163Z,5.67
2022-11-05T08:35:40.615Z,5.47
2022-11-05T08:38:09.960Z,7.50
2022-11-05T08:40:37.674Z,5.67
2022-11-05T08:43:06.835Z,9.03
2022-11-05T08:45:34.474Z,9.73
2022-11-05T08:48:07.008Z,6.53
2022-11-05T08:50:33.994Z,7.10
2022-11-05T08:53:01.056Z,7.67
2022-11-05T08:55:27.893Z,9.43
2022-11-05T08:57:59.337Z,9.90
2022-11-05T09:00:27.575Z,5.60
2022-11-05T09:02:55.057Z,7.70
2022-11-05T09:05:21.925Z,5.10
2022-11-05T09:07:48.729Z,5.93
2022-11-05T09:10:15.625Z,4.27
2022-11-05T09:12:42.719Z,5.43
2022-11-05T09:15:09.908Z,3.13
2022-11-05T09:17:36.803Z,8.20
2022-11-05T09:20:07.004Z,8.83
2022-11-05T09:22:36.871Z,7.13
2022-11-05T09:25:06.679Z,7.10
2022-11-05T09:27:33.552Z,8.93
2022-11-05T09:30:00.253Z,8.83
2022-11-05T09:32:26.974Z,6.40
2022-11-05T09:34:53.701Z,6.23
2022-11-05T09:37:21.840Z,5.87
2022-11-05T09:39:48.885Z,6.73
2022-11-05T09:42:17.644Z,4.70
2022-11-05T09:44:49.481Z,6.90
2022-11-05T09:47:24.725Z,7.00
2022-11-05T09:49:57.287Z,4.80
2022-11-05T09:52:27.373Z,6.63
2022-11-05T09:54:55.570Z,5.63
2022-11-05T09:57:29.694Z,5.50
2022-11-05T10:00:01.205Z,6.70
2022-11-05T10:02:35.443Z,8.37
2022-11-05T10:05:10.294Z,9.27
2022-11-05T10:07:51.250Z,6.87
2022-11-05T10:10:44.671Z,10.43
2022-11-05T10:13:29.544Z,11.73
2022-11-05T10:16:13.962Z,8.23
2022-11-05T10:18:44.385Z,9.00
2022-11-05T10:21:32.289Z,9.07
2022-11-05T10:24:15.954Z,4.73
2022-11-05T10:26:44.274Z,4.03
2022-11-05T10:29:22.518Z,5.33
2022-11-05T10:31:49.504Z,7.07
2022-11-05T10:34:17.892Z,9.83
2022-11-05T10:36:44.682Z,6.43
2022-11-05T10:39:18.018Z,6.37
2022-11-05T10:42:06.997Z,6.70
2022-11-05T10:45:07.503Z,7.37
2022-11-05T10:47:56.172Z,8.03
2022-11-05T10:50:29.560Z,5.87
2022-11-05T10:53:00.590Z,4.23
2022-11-05T10:55:34.790Z,6.83
2022-11-05T10:58:09.636Z,5.03
2022-11-05T11:00:37.258Z,6.37
2022-11-05T11:03:25.597Z,3.77
2022-11-05T11:06:02.407Z,8.03
2022-11-05T11:08:33.214Z,8.60
2022-11-05T11:11:05.210Z,14.50
2022-11-05T11:13:59.293Z,22.27
2022-11-05T11:16:28.419Z,33.13
2022-11-05T11:18:59.230Z,39.80
2022-11-05T11:21:27.303Z,34.83
2022-11-05T11:23:55.691Z,29.70
2022-11-05T11:26:25.432Z,18.83
2022-11-05T11:29:16.080Z,20.07
2022-11-05T11:31:43.014Z,10.50
2022-11-05T11:34:22.515Z,9.57
2022-11-05T11:36:54.419Z,10.30
2022-11-05T11:39:26.706Z,4.87
2022-11-05T11:41:57.592Z,6.57
2022-11-05T11:44:32.270Z,6.77
2022-11-05T11:47:03.265Z,8.90
2022-11-05T11:49:45.853Z,11.63
2022-11-05T11:52:26.681Z,14.67
2022-11-05T11:55:06.670Z,16.80
2022-11-05T11:57:50.197Z,15.33
2022-11-05T12:00:22.551Z,14.07
2022-11-05T12:03:17.994Z,13.10
2022-11-05T12:06:05.808Z,11.47
2022-11-05T12:08:54.185Z,10.70
2022-11-05T12:11:58.845Z,11.33
2022-11-05T12:14:34.572Z,11.77
2022-11-05T12:17:07.654Z,7.73
2022-11-05T12:19:57.234Z,5.63
2022-11-05T12:22:48.248Z,8.07
2022-11-05T12:25:29.857Z,13.30
2022-11-05T12:27:59.736Z,14.47
2022-11-05T12:30:31.199Z,15.57
2022-11-05T12:33:17.103Z,15.10
2022-11-05T12:36:00.238Z,14.63
2022-11-05T12:38:41.865Z,11.77
2022-11-05T12:41:37.810Z,12.43
2022-11-05T12:44:46.567Z,9.40
2022-11-05T12:47:32.305Z,13.63
2022-11-05T12:50:10.124Z,11.93
2022-11-05T12:52:59.262Z,12.93
2022-11-05T12:55:31.843Z,10.63
2022-11-05T12:58:13.002Z,10.40
2022-11-05T13:00:46.280Z,13.43
2022-11-05T13:03:24.695Z,9.97
2022-11-05T13:06:21.109Z,13.67
2022-11-05T13:09:05.370Z,11.33
2022-11-05T13:11:35.073Z,13.07
2022-11-05T13:14:13.008Z,12.77
2022-11-05T13:16:45.307Z,13.03
2022-11-05T13:19:20.284Z,5.90
2022-11-05T13:21:53.663Z,7.30
2022-11-05T13:24:42.115Z,6.10
2022-11-05T13:27:18.864Z,8.83
2022-11-05T13:29:52.647Z,5.50
2022-11-05T13:32:26.712Z,7.57
2022-11-05T13:35:01.853Z,6.17
2022-11-05T13:37:53.361Z,7.60
2022-11-05T13:40:25.590Z,7.70
2022-11-05T13:43:08.711Z,5.63
2022-11-05T13:45:50.903Z,5.93
2022-11-05T13:48:40.111Z,9.73
2022-11-05T13:51:23.071Z,10.27
2022-11-05T13:54:08.589Z,8.87
2022-11-05T13:57:04.710Z,9.60
2022-11-05T13:59:56.098Z,9.20
2022-11-05T14:02:28.021Z,10.90
2022-11-05T14:05:02.480Z,12.33
2022-11-05T14:07:36.397Z,8.43
2022-11-05T14:10:24.426Z,9.03
2022-11-05T14:12:54.320Z,6.87
2022-11-05T14:15:24.599Z,7.57
2022-11-05T14:18:35.968Z,7.30
2022-11-05T14:21:05.028Z,5.57
2022-11-05T14:23:34.607Z,6.27
2022-11-05T14:26:01.366Z,5.67
2022-11-05T14:28:38.977Z,7.17
2022-11-05T14:31:31.386Z,5.80
2022-11-05T14:34:11.026Z,4.97
2022-11-05T14:36:39.835Z,4.50
2022-11-05T14:39:21.193Z,7.33
2022-11-05T14:41:57.973Z,8.57
2022-11-05T14:44:25.883Z,7.67
2022-11-05T14:46:57.305Z,5.77
2022-11-05T14:49:57.677Z,5.53
2022-11-05T14:52:24.644Z,4.73
2022-11-05T14:54:54.398Z,5.03
2022-11-05T14:57:43.113Z,5.13
2022-11-05T15:00:30.169Z,9.70
2022-11-05T15:03:28.750Z,5.10
2022-11-05T15:06:22.252Z,6.83
2022-11-05T15:08:49.054Z,5.77
2022-11-05T15:11:35.630Z,5.13
2022-11-05T15:14:18.056Z,4.80
2022-11-05T15:16:50.342Z,5.50
2022-11-05T15:19:32.383Z,4.67
2022-11-05T15:22:03.166Z,4.90
2022-11-05T15:24:31.569Z,4.43
2022-11-05T15:27:33.533Z,4.00
2022-11-05T15:30:16.343Z,4.57
2022-11-05T15:32:43.091Z,5.13
2022-11-05T15:35:26.964Z,3.23
2022-11-05T15:38:01.853Z,6.00
2022-11-05T15:40:36.309Z,4.47
2022-11-05T15:43:19.444Z,7.20
2022-11-05T15:46:00.298Z,5.57
2022-11-05T15:48:27.091Z,5.23
2022-11-05T15:50:54.048Z,5.03
2022-11-05T15:53:56.502Z,3.93
2022-11-05T15:56:23.897Z,4.37
2022-11-05T15:58:54.489Z,4.17
2022-11-05T16:01:36.532Z,3.27
2022-11-05T16:04:21.281Z,8.13
2022-11-05T16:06:50.980Z,3.83
2022-11-05T16:09:27.847Z,4.93
2022-11-05T16:12:15.365Z,4.90
2022-11-05T16:14:42.455Z,4.03
2022-11-05T16:17:21.471Z,2.87
2022-11-05T16:19:49.331Z,4.93
2022-11-05T16:22:16.628Z,5.00
2022-11-05T16:24:44.631Z,6.00
2022-11-05T16:27:29.607Z,2.03
2022-11-05T16:29:57.340Z,4.47
2022-11-05T16:32:31.040Z,6.67
2022-11-05T16:35:05.029Z,6.10
2022-11-05T16:37:40.001Z,5.27
2022-11-05T16:40:16.948Z,3.27
2022-11-05T16:42:45.439Z,5.70
2022-11-05T16:45:14.702Z,6.57
2022-11-05T16:47:42.302Z,9.60
2022-11-05T16:50:31.121Z,4.67
2022-11-05T16:52:57.892Z,5.47
2022-11-05T16:55:24.645Z,3.37
2022-11-05T16:57:53.718Z,6.33
2022-11-05T17:00:21.955Z,4.70
2022-11-05T17:02:49.027Z,4.33
2022-11-05T17:05:26.907Z,7.10
2022-11-05T17:07:54.316Z,4.00
2022-11-05T17:10:22.750Z,5.93
2022-11-05T17:12:50.566Z,7.30
2022-11-05T17:15:27.668Z,4.10
2022-11-05T17:17:55.362Z,3.90
2022-11-05T17:20:41.537Z,3.23
2022-11-05T17:23:14.658Z,4.27
2022-11-05T17:25:43.701Z,4.37
2022-11-05T17:28:12.090Z,7.10
2022-11-05T17:30:41.680Z,4.30
2022-11-05T17:33:09.699Z,4.10
2022-11-05T17:35:39.549Z,4.60
2022-11-05T17:38:06.300Z,5.80
2022-11-05T17:40:35.227Z,4.70
2022-11-05T17:43:02.466Z,5.80
2022-11-05T17:45:29.251Z,4.30
2022-11-05T17:47:56.399Z,8.43
2022-11-05T17:50:23.253Z,5.40
2022-11-05T17:52:50.049Z,8.40
2022-11-05T17:55:17.627Z,6.67
2022-11-05T17:57:47.152Z,7.23
2022-11-05T18:00:20.179Z,7.40
2022-11-05T18:02:49.626Z,9.80
2022-11-05T18:05:21.711Z,8.37
2022-11-05T18:07:49.545Z,5.57
2022-11-05T18:10:16.654Z,8.47
2022-11-05T18:12:44.056Z,6.57
2022-11-05T18:15:10.906Z,8.93
2022-11-05T18:17:37.899Z,9.10
2022-11-05T18:20:11.658Z,7.73
2022-11-05T18:22:42.275Z,10.87
2022-11-05T18:25:11.210Z,10.47
2022-11-05T18:27:38.194Z,12.57
2022-11-05T18:30:06.012Z,15.97
2022-11-05T18:32:33.514Z,10.10
2022-11-05T18:35:00.477Z,6.70
2022-11-05T18:37:27.365Z,9.70
2022-11-05T18:39:54.250Z,8.87
2022-11-05T18:42:21.707Z,9.57
2022-11-05T18:44:48.952Z,11.83
2022-11-05T18:47:15.724Z,8.77
2022-11-05T18:49:42.664Z,8.40
2022-11-05T18:52:09.782Z,9.53
2022-11-05T18:54:36.742Z,12.27
2022-11-05T18:57:03.771Z,10.27
2022-11-05T18:59:37.107Z,11.00
2022-11-05T19:02:05.798Z,10.50
2022-11-05T19:04:33.057Z,7.40
2022-11-05T19:07:04.435Z,7.97
2022-11-05T19:09:32.466Z,18.40
2022-11-05T19:11:59.205Z,18.00
2022-11-05T19:14:26.026Z,11.73
2022-11-05T19:16:52.719Z,8.80
2022-11-05T19:19:19.619Z,12.47
2022-11-05T19:21:46.358Z,12.23
2022-11-05T19:24:20.125Z,14.00
2022-11-05T19:26:47.523Z,12.77
2022-11-05T19:29:14.279Z,11.67
2022-11-05T19:31:41.258Z,11.97
2022-11-05T19:34:08.383Z,10.70
2022-11-05T19:36:36.731Z,12.70
2022-11-05T19:39:06.509Z,13.20
2022-11-05T19:41:33.792Z,14.60
2022-11-05T19:44:01.935Z,18.63
2022-11-05T19:46:30.109Z,17.93
2022-11-05T19:48:57.347Z,21.53
2022-11-05T19:51:27.386Z,11.43
2022-11-05T19:53:55.388Z,10.30
2022-11-05T19:56:31.121Z,7.00
2022-11-05T19:58:59.161Z,7.13
2022-11-05T20:01:28.011Z,12.97
2022-11-05T20:03:57.000Z,11.37
2022-11-05T20:06:37.860Z,11.23
2022-11-05T20:09:21.246Z,9.47
2022-11-05T20:11:49.895Z,10.33
2022-11-05T20:14:17.180Z,12.50
2022-11-05T20:16:46.190Z,11.10
2022-11-05T20:19:15.372Z,10.07
2022-11-05T20:21:42.244Z,16.87
2022-11-05T20:24:09.939Z,14.23
2022-11-05T20:26:37.312Z,9.80
2022-11-05T20:29:04.416Z,9.63
2022-11-05T20:31:31.209Z,11.13
2022-11-05T20:33:57.969Z,13.93
2022-11-05T20:36:25.933Z,14.73
2022-11-05T20:38:55.379Z,17.10
2022-11-05T20:41:24.993Z,17.13
2022-11-05T20:43:52.101Z,16.37
2022-11-05T20:46:20.223Z,16.80
2022-11-05T20:48:47.179Z,18.27
2022-11-05T20:51:16.593Z,19.40
2022-11-05T20:53:44.078Z,22.30
2022-11-05T20:56:19.591Z,20.83
2022-11-05T20:58:47.500Z,20.60
2022-11-05T21:01:16.678Z,20.47
2022-11-05T21:03:45.131Z,21.53
2022-11-05T21:06:12.561Z,23.83
2022-11-05T21:08:39.665Z,18.03
2022-11-05T21:11:07.427Z,24.57
2022-11-05T21:13:34.732Z,17.93
2022-11-05T21:16:02.466Z,20.50
2022-11-05T21:18:33.399Z,18.50
2022-11-05T21:21:00.482Z,15.83
2022-11-05T21:23:28.686Z,16.53
2022-11-05T21:25:55.994Z,18.57
2022-11-05T21:28:23.048Z,19.47
2022-11-05T21:30:49.948Z,23.63
2022-11-05T21:33:18.818Z,22.13
2022-11-05T21:35:47.729Z,20.87
2022-11-05T21:38:16.432Z,21.13
2022-11-05T21:40:44.372Z,17.53
2022-11-05T21:43:12.001Z,18.43
2022-11-05T21:45:44.001Z,18.50
2022-11-05T21:48:11.818Z,15.73
2022-11-05T21:50:58.621Z,14.43
2022-11-05T21:53:44.245Z,18.57
2022-11-05T21:56:39.707Z,14.60
2022-11-05T21:59:25.382Z,13.47
2022-11-05T22:02:01.276Z,14.20
2022-11-05T22:04:33.600Z,17.20
2022-11-05T22:07:00.794Z,15.50
2022-11-05T22:09:27.871Z,21.10
2022-11-05T22:11:55.032Z,18.27
2022-11-05T22:14:22.409Z,16.10
2022-11-05T22:16:49.332Z,16.33
2022-11-05T22:19:16.158Z,16.97
2022-11-05T22:21:42.992Z,18.43
2022-11-05T22:24:09.960Z,20.70
2022-11-05T22:26:37.677Z,20.30
2022-11-05T22:29:06.141Z,19.33
2022-11-05T22:31:36.150Z,20.13
2022-11-05T22:34:04.948Z,21.60
2022-11-05T22:36:32.909Z,21.57
2022-11-05T22:38:59.989Z,21.40
2022-11-05T22:41:27.079Z,20.23
2022-11-05T22:43:54.092Z,22.97
2022-11-05T22:46:23.088Z,23.47
2022-11-05T22:48:50.335Z,20.73
2022-11-05T22:51:20.594Z,20.17
2022-11-05T22:53:47.912Z,22.07
2022-11-05T22:56:17.809Z,18.87
2022-11-05T22:58:44.872Z,20.90
2022-11-05T23:01:13.062Z,18.10
2022-11-05T23:03:41.545Z,19.13
2022-11-05T23:06:32.002Z,19.07
2022-11-05T23:09:18.371Z,18.47
2022-11-05T23:11:49.134Z,15.37
2022-11-05T23:14:16.177Z,15.63
2022-11-05T23:17:22.069Z,16.30
2022-11-05T23:20:24.250Z,14.90
2022-11-05T23:23:09.517Z,18.50
2022-11-05T23:25:36.344Z,19.50
2022-11-05T23:28:07.042Z,21.17
2022-11-05T23:30:34.172Z,15.27
2022-11-05T23:33:00.866Z,18.50
2022-11-05T23:36:03.329Z,16.77
2022-11-05T23:38:36.551Z,17.03
2022-11-05T23:41:22.962Z,16.90
2022-11-05T23:44:08.982Z,15.37
2022-11-05T23:46:54.799Z,17.23
2022-11-05T23:49:22.129Z,22.17
2022-11-05T23:51:49.594Z,18.03
2022-11-05T23:54:16.397Z,21.70
2022-11-05T23:56:43.186Z,18.23
2022-11-05T23:59:09.896Z,22.83
